sensor_id;sensor_type;location;lat;lon;timestamp;temperature;humidity
25280;DHT22;13225;47.804;12.116;2023-11-19T00:00:07;5.10;99.90
25280;DHT22;13225;47.804;12.116;2023-11-19T00:02:40;5.00;99.90
25280;DHT22;13225;47.804;12.116;2023-11-19T00:05:10;5.00;99.90
25280;DHT22;13225;47.804;12.116;2023-11-19T00:07:37;5.00;99.90
25280;DHT22;13225;47.804;12.116;2023-11-19T00:10:14;4.90;99.90
25280;DHT22;13225;47.804;12.116;2023-11-19T00:12:41;4.90;99.90
25280;DHT22;13225;47.804;12.116;2023-11-19T00:15:07;4.80;99.90
25280;DHT22;13225;47.804;12.116;2023-11-19T00:17:43;4.80;99.90
25280;DHT22;13225;47.804;12.116;2023-11-19T00:20:11;4.80;99.90
25280;DHT22;13225;47.804;12.116;2023-11-19T00:22:37;4.70;99.90
25280;DHT22;13225;47.804;12.116;2023-11-19T00:25:03;4.70;99.90
25280;DHT22;13225;47.804;12.116;2023-11-19T00:27:29;4.70;99.90
25280;DHT22;13225;47.804;12.116;2023-11-19T00:29:57;4.70;99.90
25280;DHT22;13225;47.804;12.116;2023-11-19T00:32:26;4.70;99.90
25280;DHT22;13225;47.804;12.116;2023-11-19T00:34:51;4.70;99.90
25280;DHT22;13225;47.804;12.116;2023-11-19T00:37:17;4.70;99.90
25280;DHT22;13225;47.804;12.116;2023-11-19T00:39:46;4.70;99.90
25280;DHT22;13225;47.804;12.116;2023-11-19T00:42:12;4.80;99.90
25280;DHT22;13225;47.804;12.116;2023-11-19T00:44:39;4.80;99.90
25280;DHT22;13225;47.804;12.116;2023-11-19T00:47:05;4.80;99.90
25280;DHT22;13225;47.804;12.116;2023-11-19T00:49:31;4.80;99.90
25280;DHT22;13225;47.804;12.116;2023-11-19T00:51:59;4.90;99.90
25280;DHT22;13225;47.804;12.116;2023-11-19T00:54:25;4.90;99.90
25280;DHT22;13225;47.804;12.116;2023-11-19T00:56:55;4.90;99.90
25280;DHT22;13225;47.804;12.116;2023-11-19T00:59:26;5.00;99.90
25280;DHT22;13225;47.804;12.116;2023-11-19T01:01:54;5.00;99.90
25280;DHT22;13225;47.804;12.116;2023-11-19T01:04:21;5.00;99.90
25280;DHT22;13225;47.804;12.116;2023-11-19T01:06:50;4.90;99.90
25280;DHT22;13225;47.804;12.116;2023-11-19T01:09:16;5.00;99.90
25280;DHT22;13225;47.804;12.116;2023-11-19T01:11:41;5.00;99.90
25280;DHT22;13225;47.804;12.116;2023-11-19T01:14:07;5.10;99.90
25280;DHT22;13225;47.804;12.116;2023-11-19T01:16:33;5.10;99.90
25280;DHT22;13225;47.804;12.116;2023-11-19T01:18:58;5.10;99.90
25280;DHT22;13225;47.804;12.116;2023-11-19T01:21:26;5.20;99.90
25280;DHT22;13225;47.804;12.116;2023-11-19T01:23:51;5.20;99.90
25280;DHT22;13225;47.804;12.116;2023-11-19T01:26:19;5.20;99.90
25280;DHT22;13225;47.804;12.116;2023-11-19T01:28:45;5.30;99.90
25280;DHT22;13225;47.804;12.116;2023-11-19T01:31:12;5.30;99.90
25280;DHT22;13225;47.804;12.116;2023-11-19T01:33:40;5.30;99.90
25280;DHT22;13225;47.804;12.116;2023-11-19T01:36:07;5.30;99.90
25280;DHT22;13225;47.804;12.116;2023-11-19T01:38:34;5.30;99.90
25280;DHT22;13225;47.804;12.116;2023-11-19T01:41:00;5.30;99.90
25280;DHT22;13225;47.804;12.116;2023-11-19T01:43:37;5.30;99.90
25280;DHT22;13225;47.804;12.116;2023-11-19T01:46:05;5.30;99.90
25280;DHT22;13225;47.804;12.116;2023-11-19T01:48:34;5.30;99.90
25280;DHT22;13225;47.804;12.116;2023-11-19T01:51:08;5.30;99.90
25280;DHT22;13225;47.804;12.116;2023-11-19T01:53:39;5.30;99.90
25280;DHT22;13225;47.804;12.116;2023-11-19T01:56:08;5.30;99.90
25280;DHT22;13225;47.804;12.116;2023-11-19T01:58:40;5.40;99.90
25280;DHT22;13225;47.804;12.116;2023-11-19T02:01:06;5.40;99.90
25280;DHT22;13225;47.804;12.116;2023-11-19T02:03:33;5.30;99.90
25280;DHT22;13225;47.804;12.116;2023-11-19T02:06:00;5.30;99.90
25280;DHT22;13225;47.804;12.116;2023-11-19T02:08:26;5.30;99.90
25280;DHT22;13225;47.804;12.116;2023-11-19T02:10:52;5.30;99.90
25280;DHT22;13225;47.804;12.116;2023-11-19T02:13:18;5.30;99.90
25280;DHT22;13225;47.804;12.116;2023-11-19T02:15:44;5.30;99.90
25280;DHT22;13225;47.804;12.116;2023-11-19T02:18:26;5.20;99.90
25280;DHT22;13225;47.804;12.116;2023-11-19T02:20:57;5.20;99.90
25280;DHT22;13225;47.804;12.116;2023-11-19T02:23:25;5.30;99.90
25280;DHT22;13225;47.804;12.116;2023-11-19T02:26:15;5.20;99.90
25280;DHT22;13225;47.804;12.116;2023-11-19T02:28:43;5.20;99.90
25280;DHT22;13225;47.804;12.116;2023-11-19T02:31:10;5.20;99.90
25280;DHT22;13225;47.804;12.116;2023-11-19T02:33:37;5.20;99.90
25280;DHT22;13225;47.804;12.116;2023-11-19T02:36:04;5.20;99.90
25280;DHT22;13225;47.804;12.116;2023-11-19T02:38:30;5.30;99.90
25280;DHT22;13225;47.804;12.116;2023-11-19T02:40:59;5.20;99.90
25280;DHT22;13225;47.804;12.116;2023-11-19T02:43:31;5.30;99.90
25280;DHT22;13225;47.804;12.116;2023-11-19T02:46:03;5.30;99.90
25280;DHT22;13225;47.804;12.116;2023-11-19T02:48:32;5.30;99.90
25280;DHT22;13225;47.804;12.116;2023-11-19T02:51:01;5.30;99.90
25280;DHT22;13225;47.804;12.116;2023-11-19T02:53:29;5.40;99.90
25280;DHT22;13225;47.804;12.116;2023-11-19T02:55:55;5.40;99.90
25280;DHT22;13225;47.804;12.116;2023-11-19T02:58:27;5.40;99.90
25280;DHT22;13225;47.804;12.116;2023-11-19T03:00:54;5.50;99.90
25280;DHT22;13225;47.804;12.116;2023-11-19T03:03:26;5.50;99.90
25280;DHT22;13225;47.804;12.116;2023-11-19T03:05:58;5.50;99.90
25280;DHT22;13225;47.804;12.116;2023-11-19T03:08:27;5.60;99.90
25280;DHT22;13225;47.804;12.116;2023-11-19T03:10:53;5.60;99.90
25280;DHT22;13225;47.804;12.116;2023-11-19T03:13:19;5.70;99.90
25280;DHT22;13225;47.804;12.116;2023-11-19T03:15:47;5.90;99.90
25280;DHT22;13225;47.804;12.116;2023-11-19T03:18:15;6.00;99.90
25280;DHT22;13225;47.804;12.116;2023-11-19T03:20:41;6.10;99.90
25280;DHT22;13225;47.804;12.116;2023-11-19T03:23:07;6.10;99.90
25280;DHT22;13225;47.804;12.116;2023-11-19T03:25:32;6.10;99.90
25280;DHT22;13225;47.804;12.116;2023-11-19T03:28:00;6.00;99.90
25280;DHT22;13225;47.804;12.116;2023-11-19T03:30:30;6.00;99.90
25280;DHT22;13225;47.804;12.116;2023-11-19T03:32:57;6.10;99.90
25280;DHT22;13225;47.804;12.116;2023-11-19T03:37:58;6.10;99.90
25280;DHT22;13225;47.804;12.116;2023-11-19T03:40:24;6.10;99.90
25280;DHT22;13225;47.804;12.116;2023-11-19T03:42:50;6.10;99.90
25280;DHT22;13225;47.804;12.116;2023-11-19T03:45:24;6.10;99.90
25280;DHT22;13225;47.804;12.116;2023-11-19T03:47:51;6.20;99.90
25280;DHT22;13225;47.804;12.116;2023-11-19T03:50:17;6.20;99.90
25280;DHT22;13225;47.804;12.116;2023-11-19T03:52:46;6.20;99.90
25280;DHT22;13225;47.804;12.116;2023-11-19T03:55:11;6.10;99.90
25280;DHT22;13225;47.804;12.116;2023-11-19T03:57:38;6.00;99.90
25280;DHT22;13225;47.804;12.116;2023-11-19T04:00:07;6.00;99.90
25280;DHT22;13225;47.804;12.116;2023-11-19T04:02:39;6.00;99.90
25280;DHT22;13225;47.804;12.116;2023-11-19T04:05:05;6.10;99.90
25280;DHT22;13225;47.804;12.116;2023-11-19T04:07:32;6.00;99.90
25280;DHT22;13225;47.804;12.116;2023-11-19T04:09:58;6.00;99.90
25280;DHT22;13225;47.804;12.116;2023-11-19T04:12:24;5.90;99.90
25280;DHT22;13225;47.804;12.116;2023-11-19T04:14:49;5.90;99.90
25280;DHT22;13225;47.804;12.116;2023-11-19T04:17:18;5.90;99.90
25280;DHT22;13225;47.804;12.116;2023-11-19T04:19:44;5.80;99.90
25280;DHT22;13225;47.804;12.116;2023-11-19T04:22:09;5.80;99.90
25280;DHT22;13225;47.804;12.116;2023-11-19T04:24:38;5.80;99.90
25280;DHT22;13225;47.804;12.116;2023-11-19T04:27:06;5.80;99.90
25280;DHT22;13225;47.804;12.116;2023-11-19T04:29:32;5.90;99.90
25280;DHT22;13225;47.804;12.116;2023-11-19T04:31:58;5.90;99.90
25280;DHT22;13225;47.804;12.116;2023-11-19T04:34:26;6.00;99.90
25280;DHT22;13225;47.804;12.116;2023-11-19T04:36:52;6.00;99.90
25280;DHT22;13225;47.804;12.116;2023-11-19T04:39:20;6.00;99.90
25280;DHT22;13225;47.804;12.116;2023-11-19T04:41:50;6.00;99.90
25280;DHT22;13225;47.804;12.116;2023-11-19T04:44:20;6.10;99.90
25280;DHT22;13225;47.804;12.116;2023-11-19T04:46:51;6.20;99.90
25280;DHT22;13225;47.804;12.116;2023-11-19T04:49:17;6.30;99.90
25280;DHT22;13225;47.804;12.116;2023-11-19T04:51:45;6.30;99.90
25280;DHT22;13225;47.804;12.116;2023-11-19T04:54:16;6.40;99.90
25280;DHT22;13225;47.804;12.116;2023-11-19T04:56:45;6.50;99.90
25280;DHT22;13225;47.804;12.116;2023-11-19T04:59:13;6.50;99.90
25280;DHT22;13225;47.804;12.116;2023-11-19T05:01:47;6.50;99.90
25280;DHT22;13225;47.804;12.116;2023-11-19T05:04:13;6.60;99.90
25280;DHT22;13225;47.804;12.116;2023-11-19T05:06:39;6.60;99.90
25280;DHT22;13225;47.804;12.116;2023-11-19T05:09:04;6.60;99.90
25280;DHT22;13225;47.804;12.116;2023-11-19T05:11:33;6.50;99.90
25280;DHT22;13225;47.804;12.116;2023-11-19T05:13:59;6.50;99.90
25280;DHT22;13225;47.804;12.116;2023-11-19T05:16:29;6.50;99.90
25280;DHT22;13225;47.804;12.116;2023-11-19T05:18:55;6.50;99.90
25280;DHT22;13225;47.804;12.116;2023-11-19T05:21:23;6.40;99.90
25280;DHT22;13225;47.804;12.116;2023-11-19T05:23:49;6.40;99.90
25280;DHT22;13225;47.804;12.116;2023-11-19T05:26:25;6.50;99.90
25280;DHT22;13225;47.804;12.116;2023-11-19T05:28:51;6.40;99.90
25280;DHT22;13225;47.804;12.116;2023-11-19T05:31:17;6.50;99.90
25280;DHT22;13225;47.804;12.116;2023-11-19T05:33:46;6.40;99.90
25280;DHT22;13225;47.804;12.116;2023-11-19T05:36:12;6.50;99.90
25280;DHT22;13225;47.804;12.116;2023-11-19T05:38:38;6.50;99.90
25280;DHT22;13225;47.804;12.116;2023-11-19T05:41:04;6.50;99.90
25280;DHT22;13225;47.804;12.116;2023-11-19T05:43:31;6.60;99.90
25280;DHT22;13225;47.804;12.116;2023-11-19T05:45:57;6.50;99.90
25280;DHT22;13225;47.804;12.116;2023-11-19T05:48:24;6.50;99.90
25280;DHT22;13225;47.804;12.116;2023-11-19T05:50:50;6.40;99.90
25280;DHT22;13225;47.804;12.116;2023-11-19T05:53:28;6.40;99.90
25280;DHT22;13225;47.804;12.116;2023-11-19T05:55:54;6.40;99.90
25280;DHT22;13225;47.804;12.116;2023-11-19T05:58:27;6.40;99.90
25280;DHT22;13225;47.804;12.116;2023-11-19T06:00:57;6.30;99.90
25280;DHT22;13225;47.804;12.116;2023-11-19T06:03:23;6.30;99.90
25280;DHT22;13225;47.804;12.116;2023-11-19T06:05:52;6.30;99.90
25280;DHT22;13225;47.804;12.116;2023-11-19T06:08:20;6.20;99.90
25280;DHT22;13225;47.804;12.116;2023-11-19T06:10:46;6.20;99.90
25280;DHT22;13225;47.804;12.116;2023-11-19T06:13:13;6.20;99.90
25280;DHT22;13225;47.804;12.116;2023-11-19T06:15:42;6.20;99.90
25280;DHT22;13225;47.804;12.116;2023-11-19T06:18:10;6.30;99.90
25280;DHT22;13225;47.804;12.116;2023-11-19T06:20:40;6.40;99.90
25280;DHT22;13225;47.804;12.116;2023-11-19T06:23:06;6.50;99.90
25280;DHT22;13225;47.804;12.116;2023-11-19T06:25:32;6.50;99.90
25280;DHT22;13225;47.804;12.116;2023-11-19T06:28:01;6.60;99.90
25280;DHT22;13225;47.804;12.116;2023-11-19T06:30:32;6.70;99.90
25280;DHT22;13225;47.804;12.116;2023-11-19T06:33:01;6.70;99.90
25280;DHT22;13225;47.804;12.116;2023-11-19T06:35:28;6.70;99.90
25280;DHT22;13225;47.804;12.116;2023-11-19T06:38:02;6.70;99.90
25280;DHT22;13225;47.804;12.116;2023-11-19T06:40:30;6.70;99.90
25280;DHT22;13225;47.804;12.116;2023-11-19T06:43:00;6.60;99.90
25280;DHT22;13225;47.804;12.116;2023-11-19T06:45:26;6.60;99.90
25280;DHT22;13225;47.804;12.116;2023-11-19T06:47:51;6.60;99.90
25280;DHT22;13225;47.804;12.116;2023-11-19T06:50:20;6.70;99.90
25280;DHT22;13225;47.804;12.116;2023-11-19T06:52:46;6.80;99.90
25280;DHT22;13225;47.804;12.116;2023-11-19T06:55:17;6.80;99.90
25280;DHT22;13225;47.804;12.116;2023-11-19T06:57:45;6.90;99.90
25280;DHT22;13225;47.804;12.116;2023-11-19T07:00:16;6.90;99.90
25280;DHT22;13225;47.804;12.116;2023-11-19T07:02:44;6.90;99.90
25280;DHT22;13225;47.804;12.116;2023-11-19T07:05:10;6.80;99.90
25280;DHT22;13225;47.804;12.116;2023-11-19T07:07:37;6.80;99.90
25280;DHT22;13225;47.804;12.116;2023-11-19T07:10:03;6.80;99.90
25280;DHT22;13225;47.804;12.116;2023-11-19T07:12:31;6.90;99.90
25280;DHT22;13225;47.804;12.116;2023-11-19T07:15:06;6.90;99.90
25280;DHT22;13225;47.804;12.116;2023-11-19T07:17:41;6.90;99.90
25280;DHT22;13225;47.804;12.116;2023-11-19T07:20:07;6.90;99.90
25280;DHT22;13225;47.804;12.116;2023-11-19T07:22:33;6.90;99.90
25280;DHT22;13225;47.804;12.116;2023-11-19T07:24:59;6.90;99.90
25280;DHT22;13225;47.804;12.116;2023-11-19T07:27:25;6.90;99.90
25280;DHT22;13225;47.804;12.116;2023-11-19T07:29:50;7.00;99.90
25280;DHT22;13225;47.804;12.116;2023-11-19T07:32:16;6.90;99.90
25280;DHT22;13225;47.804;12.116;2023-11-19T07:34:44;6.90;99.90
25280;DHT22;13225;47.804;12.116;2023-11-19T07:37:10;6.90;99.90
25280;DHT22;13225;47.804;12.116;2023-11-19T07:39:36;6.90;99.90
25280;DHT22;13225;47.804;12.116;2023-11-19T07:42:08;6.90;99.90
25280;DHT22;13225;47.804;12.116;2023-11-19T07:44:37;6.90;99.90
25280;DHT22;13225;47.804;12.116;2023-11-19T07:47:03;6.90;99.90
25280;DHT22;13225;47.804;12.116;2023-11-19T07:49:43;6.90;99.90
25280;DHT22;13225;47.804;12.116;2023-11-19T07:52:26;6.90;99.90
25280;DHT22;13225;47.804;12.116;2023-11-19T07:54:57;7.00;99.90
25280;DHT22;13225;47.804;12.116;2023-11-19T07:57:29;7.00;99.90
25280;DHT22;13225;47.804;12.116;2023-11-19T07:59:59;7.10;99.90
25280;DHT22;13225;47.804;12.116;2023-11-19T08:02:26;7.10;99.90
25280;DHT22;13225;47.804;12.116;2023-11-19T08:04:54;7.10;99.90
25280;DHT22;13225;47.804;12.116;2023-11-19T08:07:21;7.10;99.90
25280;DHT22;13225;47.804;12.116;2023-11-19T08:09:47;7.20;99.90
25280;DHT22;13225;47.804;12.116;2023-11-19T08:12:16;7.20;99.90
25280;DHT22;13225;47.804;12.116;2023-11-19T08:14:43;7.30;99.90
25280;DHT22;13225;47.804;12.116;2023-11-19T08:17:09;7.30;99.90
25280;DHT22;13225;47.804;12.116;2023-11-19T08:19:35;7.40;99.90
25280;DHT22;13225;47.804;12.116;2023-11-19T08:22:01;7.50;99.90
25280;DHT22;13225;47.804;12.116;2023-11-19T08:24:27;7.50;99.90
25280;DHT22;13225;47.804;12.116;2023-11-19T08:26:53;7.60;99.90
25280;DHT22;13225;47.804;12.116;2023-11-19T08:29:22;7.70;99.90
25280;DHT22;13225;47.804;12.116;2023-11-19T08:31:51;7.70;99.90
25280;DHT22;13225;47.804;12.116;2023-11-19T08:34:16;7.70;99.90
25280;DHT22;13225;47.804;12.116;2023-11-19T08:36:42;7.70;99.90
25280;DHT22;13225;47.804;12.116;2023-11-19T08:39:08;7.70;99.90
25280;DHT22;13225;47.804;12.116;2023-11-19T08:41:34;7.80;99.90
25280;DHT22;13225;47.804;12.116;2023-11-19T08:44:00;7.80;99.90
25280;DHT22;13225;47.804;12.116;2023-11-19T08:46:25;7.80;99.90
25280;DHT22;13225;47.804;12.116;2023-11-19T08:48:51;7.90;99.90
25280;DHT22;13225;47.804;12.116;2023-11-19T08:51:17;7.90;99.90
25280;DHT22;13225;47.804;12.116;2023-11-19T08:53:43;7.90;99.90
25280;DHT22;13225;47.804;12.116;2023-11-19T08:56:08;8.00;99.90
25280;DHT22;13225;47.804;12.116;2023-11-19T08:58:34;8.00;99.90
25280;DHT22;13225;47.804;12.116;2023-11-19T09:01:00;8.00;99.90
25280;DHT22;13225;47.804;12.116;2023-11-19T09:03:26;8.00;99.90
25280;DHT22;13225;47.804;12.116;2023-11-19T09:05:52;8.00;99.90
25280;DHT22;13225;47.804;12.116;2023-11-19T09:08:18;8.10;99.90
25280;DHT22;13225;47.804;12.116;2023-11-19T09:10:43;8.00;99.90
25280;DHT22;13225;47.804;12.116;2023-11-19T09:13:09;8.10;99.90
25280;DHT22;13225;47.804;12.116;2023-11-19T09:15:34;8.10;99.90
25280;DHT22;13225;47.804;12.116;2023-11-19T09:18:00;8.20;99.90
25280;DHT22;13225;47.804;12.116;2023-11-19T09:20:28;8.20;99.90
25280;DHT22;13225;47.804;12.116;2023-11-19T09:22:58;8.40;99.90
25280;DHT22;13225;47.804;12.116;2023-11-19T09:25:26;8.50;99.90
25280;DHT22;13225;47.804;12.116;2023-11-19T09:27:59;8.60;99.90
25280;DHT22;13225;47.804;12.116;2023-11-19T09:30:25;8.70;99.90
25280;DHT22;13225;47.804;12.116;2023-11-19T09:32:51;8.80;99.90
25280;DHT22;13225;47.804;12.116;2023-11-19T09:35:16;9.00;99.90
25280;DHT22;13225;47.804;12.116;2023-11-19T09:37:43;9.00;99.90
25280;DHT22;13225;47.804;12.116;2023-11-19T09:40:09;8.90;99.90
25280;DHT22;13225;47.804;12.116;2023-11-19T09:42:43;8.90;99.90
25280;DHT22;13225;47.804;12.116;2023-11-19T09:45:14;8.80;99.90
25280;DHT22;13225;47.804;12.116;2023-11-19T09:47:43;8.80;99.90
25280;DHT22;13225;47.804;12.116;2023-11-19T09:50:18;8.70;99.90
25280;DHT22;13225;47.804;12.116;2023-11-19T09:52:45;8.80;99.90
25280;DHT22;13225;47.804;12.116;2023-11-19T09:55:11;8.70;99.90
25280;DHT22;13225;47.804;12.116;2023-11-19T09:57:38;8.70;99.90
25280;DHT22;13225;47.804;12.116;2023-11-19T10:00:05;8.80;99.90
25280;DHT22;13225;47.804;12.116;2023-11-19T10:02:33;8.80;99.90
25280;DHT22;13225;47.804;12.116;2023-11-19T10:05:07;8.80;99.90
25280;DHT22;13225;47.804;12.116;2023-11-19T10:07:34;8.90;99.90
25280;DHT22;13225;47.804;12.116;2023-11-19T10:10:00;9.10;99.90
25280;DHT22;13225;47.804;12.116;2023-11-19T10:12:27;9.10;99.90
25280;DHT22;13225;47.804;12.116;2023-11-19T10:14:59;9.30;99.90
25280;DHT22;13225;47.804;12.116;2023-11-19T10:17:28;9.50;99.90
25280;DHT22;13225;47.804;12.116;2023-11-19T10:19:57;9.60;99.90
25280;DHT22;13225;47.804;12.116;2023-11-19T10:22:23;9.60;99.90
25280;DHT22;13225;47.804;12.116;2023-11-19T10:24:50;9.80;99.90
25280;DHT22;13225;47.804;12.116;2023-11-19T10:27:16;9.90;99.90
25280;DHT22;13225;47.804;12.116;2023-11-19T10:29:45;9.90;99.90
25280;DHT22;13225;47.804;12.116;2023-11-19T10:32:12;9.80;99.90
25280;DHT22;13225;47.804;12.116;2023-11-19T10:34:39;9.90;99.90
25280;DHT22;13225;47.804;12.116;2023-11-19T10:37:08;10.10;99.90
25280;DHT22;13225;47.804;12.116;2023-11-19T10:39:54;10.30;99.90
25280;DHT22;13225;47.804;12.116;2023-11-19T10:42:20;10.30;99.90
25280;DHT22;13225;47.804;12.116;2023-11-19T10:44:46;10.30;99.90
25280;DHT22;13225;47.804;12.116;2023-11-19T10:47:14;10.20;99.90
25280;DHT22;13225;47.804;12.116;2023-11-19T10:49:39;10.40;99.90
25280;DHT22;13225;47.804;12.116;2023-11-19T10:52:10;10.40;99.90
25280;DHT22;13225;47.804;12.116;2023-11-19T10:54:37;10.60;99.90
25280;DHT22;13225;47.804;12.116;2023-11-19T10:57:05;10.70;99.90
25280;DHT22;13225;47.804;12.116;2023-11-19T10:59:32;10.70;99.90
25280;DHT22;13225;47.804;12.116;2023-11-19T11:02:03;10.90;99.90
25280;DHT22;13225;47.804;12.116;2023-11-19T11:04:32;10.70;99.90
25280;DHT22;13225;47.804;12.116;2023-11-19T11:07:00;10.80;99.90
25280;DHT22;13225;47.804;12.116;2023-11-19T11:09:27;10.90;99.90
25280;DHT22;13225;47.804;12.116;2023-11-19T11:11:55;10.90;99.90
25280;DHT22;13225;47.804;12.116;2023-11-19T11:14:24;11.10;99.90
25280;DHT22;13225;47.804;12.116;2023-11-19T11:16:51;11.20;99.90
25280;DHT22;13225;47.804;12.116;2023-11-19T11:19:18;11.20;99.90
25280;DHT22;13225;47.804;12.116;2023-11-19T11:21:49;11.10;99.90
25280;DHT22;13225;47.804;12.116;2023-11-19T11:24:29;10.90;99.90
25280;DHT22;13225;47.804;12.116;2023-11-19T11:30:13;10.70;99.90
25280;DHT22;13225;47.804;12.116;2023-11-19T11:36:13;10.50;99.90
25280;DHT22;13225;47.804;12.116;2023-11-19T11:38:43;10.60;99.90
25280;DHT22;13225;47.804;12.116;2023-11-19T11:41:19;10.60;99.90
25280;DHT22;13225;47.804;12.116;2023-11-19T11:43:50;10.60;99.90
25280;DHT22;13225;47.804;12.116;2023-11-19T11:49:03;10.50;99.90
25280;DHT22;13225;47.804;12.116;2023-11-19T11:54:11;10.80;99.90
25280;DHT22;13225;47.804;12.116;2023-11-19T11:56:37;10.90;99.90
25280;DHT22;13225;47.804;12.116;2023-11-19T11:59:07;11.10;99.90
25280;DHT22;13225;47.804;12.116;2023-11-19T12:01:33;11.30;99.90
25280;DHT22;13225;47.804;12.116;2023-11-19T12:03:58;11.60;99.90
25280;DHT22;13225;47.804;12.116;2023-11-19T12:06:27;12.10;99.90
25280;DHT22;13225;47.804;12.116;2023-11-19T12:08:53;12.30;99.90
25280;DHT22;13225;47.804;12.116;2023-11-19T12:11:24;12.50;99.90
25280;DHT22;13225;47.804;12.116;2023-11-19T12:13:56;12.40;99.90
25280;DHT22;13225;47.804;12.116;2023-11-19T12:16:24;12.20;99.90
25280;DHT22;13225;47.804;12.116;2023-11-19T12:18:51;12.60;99.90
25280;DHT22;13225;47.804;12.116;2023-11-19T12:21:28;13.10;99.90
25280;DHT22;13225;47.804;12.116;2023-11-19T12:23:56;13.40;99.90
25280;DHT22;13225;47.804;12.116;2023-11-19T12:26:36;13.90;99.90
25280;DHT22;13225;47.804;12.116;2023-11-19T12:29:05;14.60;99.90
25280;DHT22;13225;47.804;12.116;2023-11-19T12:31:31;15.20;99.90
25280;DHT22;13225;47.804;12.116;2023-11-19T12:33:57;15.30;99.90
25280;DHT22;13225;47.804;12.116;2023-11-19T12:36:23;15.20;99.90
25280;DHT22;13225;47.804;12.116;2023-11-19T12:38:52;15.30;99.90
25280;DHT22;13225;47.804;12.116;2023-11-19T12:41:18;15.40;99.90
25280;DHT22;13225;47.804;12.116;2023-11-19T12:43:47;15.40;99.90
25280;DHT22;13225;47.804;12.116;2023-11-19T12:46:23;15.30;99.90
25280;DHT22;13225;47.804;12.116;2023-11-19T12:48:49;15.10;99.90
25280;DHT22;13225;47.804;12.116;2023-11-19T12:51:15;14.80;99.90
25280;DHT22;13225;47.804;12.116;2023-11-19T12:53:51;14.60;99.90
25280;DHT22;13225;47.804;12.116;2023-11-19T12:56:21;14.50;99.90
25280;DHT22;13225;47.804;12.116;2023-11-19T12:58:47;13.80;99.90
25280;DHT22;13225;47.804;12.116;2023-11-19T13:01:19;13.60;99.90
25280;DHT22;13225;47.804;12.116;2023-11-19T13:03:46;13.10;99.90
25280;DHT22;13225;47.804;12.116;2023-11-19T13:06:15;13.00;99.90
25280;DHT22;13225;47.804;12.116;2023-11-19T13:08:48;13.00;99.90
25280;DHT22;13225;47.804;12.116;2023-11-19T13:11:33;13.10;99.90
25280;DHT22;13225;47.804;12.116;2023-11-19T13:14:01;13.30;99.90
25280;DHT22;13225;47.804;12.116;2023-11-19T13:16:30;13.40;99.90
25280;DHT22;13225;47.804;12.116;2023-11-19T13:18:56;13.40;99.90
25280;DHT22;13225;47.804;12.116;2023-11-19T13:21:23;13.50;99.90
25280;DHT22;13225;47.804;12.116;2023-11-19T13:23:48;13.50;99.90
25280;DHT22;13225;47.804;12.116;2023-11-19T13:26:14;13.50;99.90
25280;DHT22;13225;47.804;12.116;2023-11-19T13:28:40;13.50;99.90
25280;DHT22;13225;47.804;12.116;2023-11-19T13:31:06;13.70;99.90
25280;DHT22;13225;47.804;12.116;2023-11-19T13:33:33;13.50;99.90
25280;DHT22;13225;47.804;12.116;2023-11-19T13:35:59;13.30;99.90
25280;DHT22;13225;47.804;12.116;2023-11-19T13:38:31;13.30;99.90
25280;DHT22;13225;47.804;12.116;2023-11-19T13:40:58;13.00;99.90
25280;DHT22;13225;47.804;12.116;2023-11-19T13:43:24;12.70;99.90
25280;DHT22;13225;47.804;12.116;2023-11-19T13:45:50;12.50;99.90
25280;DHT22;13225;47.804;12.116;2023-11-19T13:48:18;12.40;99.90
25280;DHT22;13225;47.804;12.116;2023-11-19T13:50:44;12.00;99.90
25280;DHT22;13225;47.804;12.116;2023-11-19T13:53:10;11.70;99.90
25280;DHT22;13225;47.804;12.116;2023-11-19T13:55:36;11.50;99.90
25280;DHT22;13225;47.804;12.116;2023-11-19T13:58:02;11.30;99.90
25280;DHT22;13225;47.804;12.116;2023-11-19T14:00:27;11.10;99.90
25280;DHT22;13225;47.804;12.116;2023-11-19T14:02:53;11.10;99.90
25280;DHT22;13225;47.804;12.116;2023-11-19T14:05:19;11.10;99.90
25280;DHT22;13225;47.804;12.116;2023-11-19T14:07:47;11.00;99.90
25280;DHT22;13225;47.804;12.116;2023-11-19T14:10:14;11.00;99.90
25280;DHT22;13225;47.804;12.116;2023-11-19T14:12:41;10.90;99.90
25280;DHT22;13225;47.804;12.116;2023-11-19T14:15:08;10.90;99.90
25280;DHT22;13225;47.804;12.116;2023-11-19T14:17:38;10.90;99.90
25280;DHT22;13225;47.804;12.116;2023-11-19T14:20:09;11.00;99.90
25280;DHT22;13225;47.804;12.116;2023-11-19T14:22:44;11.10;99.90
25280;DHT22;13225;47.804;12.116;2023-11-19T14:25:10;11.10;99.90
25280;DHT22;13225;47.804;12.116;2023-11-19T14:27:43;11.00;99.90
25280;DHT22;13225;47.804;12.116;2023-11-19T14:32:40;10.80;99.90
25280;DHT22;13225;47.804;12.116;2023-11-19T14:35:08;10.70;99.90
25280;DHT22;13225;47.804;12.116;2023-11-19T14:37:34;10.70;99.90
25280;DHT22;13225;47.804;12.116;2023-11-19T14:40:00;10.60;99.90
25280;DHT22;13225;47.804;12.116;2023-11-19T14:42:29;10.60;99.90
25280;DHT22;13225;47.804;12.116;2023-11-19T14:44:55;10.60;99.90
25280;DHT22;13225;47.804;12.116;2023-11-19T14:47:24;10.40;99.90
25280;DHT22;13225;47.804;12.116;2023-11-19T14:49:50;10.40;99.90
25280;DHT22;13225;47.804;12.116;2023-11-19T14:52:17;10.30;99.90
25280;DHT22;13225;47.804;12.116;2023-11-19T14:54:53;10.20;99.90
25280;DHT22;13225;47.804;12.116;2023-11-19T14:57:19;10.10;99.90
25280;DHT22;13225;47.804;12.116;2023-11-19T14:59:45;10.10;99.90
25280;DHT22;13225;47.804;12.116;2023-11-19T15:02:11;10.00;99.90
25280;DHT22;13225;47.804;12.116;2023-11-19T15:04:37;10.10;99.90
25280;DHT22;13225;47.804;12.116;2023-11-19T15:07:02;10.10;99.90
25280;DHT22;13225;47.804;12.116;2023-11-19T15:09:29;10.00;99.90
25280;DHT22;13225;47.804;12.116;2023-11-19T15:11:56;9.90;99.90
25280;DHT22;13225;47.804;12.116;2023-11-19T15:14:26;9.80;99.90
25280;DHT22;13225;47.804;12.116;2023-11-19T15:16:51;9.80;99.90
25280;DHT22;13225;47.804;12.116;2023-11-19T15:19:17;9.60;99.90
25280;DHT22;13225;47.804;12.116;2023-11-19T15:21:43;9.60;99.90
25280;DHT22;13225;47.804;12.116;2023-11-19T15:24:09;9.60;99.90
25280;DHT22;13225;47.804;12.116;2023-11-19T15:26:36;9.40;99.90
25280;DHT22;13225;47.804;12.116;2023-11-19T15:29:03;9.30;99.90
25280;DHT22;13225;47.804;12.116;2023-11-19T15:31:29;9.30;99.90
25280;DHT22;13225;47.804;12.116;2023-11-19T15:33:55;9.30;99.90
25280;DHT22;13225;47.804;12.116;2023-11-19T15:36:21;9.30;99.90
25280;DHT22;13225;47.804;12.116;2023-11-19T15:38:46;9.10;99.90
25280;DHT22;13225;47.804;12.116;2023-11-19T15:41:12;9.00;99.90
25280;DHT22;13225;47.804;12.116;2023-11-19T15:43:38;8.80;99.90
25280;DHT22;13225;47.804;12.116;2023-11-19T15:46:10;8.80;99.90
25280;DHT22;13225;47.804;12.116;2023-11-19T15:48:36;8.80;99.90